Terminal Aerodrome Forecast
Issued by NWS

Current Version | Previous Version | Text Only | Print | Product List | Glossary On
Versions: 1 2 3 4 5 6 7 8 9 10 11 12 13 14 15 16 17 18
406
FTUS46 KPDT 141728
TAFRDM
TAF
KRDM 141728Z 1418/1518 VRB05KT P6SM VCSH OVC090
     FM142100 29010KT P6SM VCSH OVC070
     FM150200 21007KT P6SM BKN080
     FM150600 19008KT P6SM SCT250=

USA.gov is the U.S. government's official web portal to all federal, state and local government web resources and services.